Time;durP1;ratioP1;P1;durP2;ratioP2;P2;SDS_P1;SDS_P2;PMS_P1;PMS_P2;Temp;Humidity;BMP_temperature;BMP_pressure;BME280_temperature;BME280_humidity;BME280_pressure;Samples;Min_cycle;Max_cycle;Signal;HPM_P1;HPM_P2
2022/09/12 00:01:22;;;;;;;149.52;13.20;;;12.90;99.90;;;;;;5063196;28;20029;-61
2022/09/12 00:03:51;;;;;;;195.02;15.15;;;13.00;99.90;;;;;;5061441;28;20032;-61
2022/09/12 00:06:20;;;;;;;174.15;15.07;;;13.00;99.90;;;;;;5063305;28;20056;-61
2022/09/12 00:08:46;;;;;;;144.88;14.15;;;13.10;99.90;;;;;;5060396;28;20502;-61
2022/09/12 00:11:12;;;;;;;109.93;12.40;;;13.10;99.90;;;;;;5065364;28;20033;-60
2022/09/12 00:13:40;;;;;;;163.40;14.07;;;13.10;99.90;;;;;;5064377;28;20033;-61
2022/09/12 00:16:06;;;;;;;346.27;20.58;;;13.10;99.90;;;;;;5063929;28;20008;-61
2022/09/12 00:18:32;;;;;;;491.77;24.70;;;13.10;99.90;;;;;;5063255;28;20036;-61
2022/09/12 00:21:03;;;;;;;461.20;26.20;;;13.10;99.90;;;;;;5060939;28;20038;-61
2022/09/12 00:23:29;;;;;;;380.42;23.38;;;13.00;99.90;;;;;;5064293;28;20044;-62
2022/09/12 00:25:55;;;;;;;341.77;19.63;;;13.00;99.90;;;;;;5064364;28;20033;-62
2022/09/12 00:28:21;;;;;;;324.20;18.05;;;13.00;99.90;;;;;;5063278;28;20041;-61
2022/09/12 00:30:49;;;;;;;334.15;21.13;;;13.00;99.90;;;;;;5062028;28;20033;-61
2022/09/12 00:33:16;;;;;;;339.00;19.73;;;13.00;99.90;;;;;;5083704;28;20548;-62
2022/09/12 00:35:47;;;;;;;375.33;18.65;;;12.90;99.90;;;;;;5068826;28;20036;-61
2022/09/12 00:38:13;;;;;;;;;;;12.90;99.90;;;;;;5058358;28;20483;-61
2022/09/12 00:40:40;;;;;;;237.45;18.65;;;12.90;99.90;;;;;;5059440;28;19912;-60
2022/09/12 00:43:32;;;;;;;346.58;21.35;;;12.90;99.90;;;;;;5062821;28;20100;-61
2022/09/12 00:46:22;;;;;;;312.33;21.90;;;12.90;99.90;;;;;;5048138;28;20031;-62
2022/09/12 00:48:54;;;;;;;283.35;19.48;;;13.00;99.90;;;;;;5050099;28;20092;-61
2022/09/12 00:51:20;;;;;;;315.02;18.13;;;13.00;99.90;;;;;;5064221;28;20024;-61
2022/09/12 00:53:49;;;;;;;358.27;22.58;;;13.00;99.90;;;;;;5062188;28;20116;-62
2022/09/12 00:56:17;;;;;;;271.92;19.27;;;13.10;99.90;;;;;;5062108;28;20025;-62
2022/09/12 00:59:10;;;;;;;410.10;25.20;;;13.00;99.90;;;;;;5057872;28;20485;-61
2022/09/12 01:01:38;;;;;;;233.70;19.95;;;13.00;99.90;;;;;;5061616;28;20121;-62
2022/09/12 01:04:03;;;;;;;372.48;22.52;;;13.00;99.90;;;;;;5060417;28;20031;-60
2022/09/12 01:06:37;;;;;;;226.38;18.05;;;13.10;99.90;;;;;;5061196;28;20033;-62
2022/09/12 01:09:04;;;;;;;255.07;20.52;;;13.00;99.90;;;;;;5056276;28;20029;-62
2022/09/12 01:11:35;;;;;;;150.18;14.63;;;13.00;99.90;;;;;;5060496;28;20066;-63
2022/09/12 01:14:01;;;;;;;231.43;18.08;;;13.10;99.90;;;;;;5063346;28;20021;-62
2022/09/12 01:16:26;;;;;;;208.23;15.50;;;13.10;99.90;;;;;;5058331;28;20078;-62
2022/09/12 01:19:20;;;;;;;123.97;15.10;;;13.10;99.90;;;;;;5063098;28;20024;-62
2022/09/12 01:22:14;;;;;;;254.65;18.40;;;13.10;99.90;;;;;;5060242;28;20028;-63
2022/09/12 01:25:04;;;;;;;204.45;17.13;;;13.10;99.90;;;;;;5058296;28;20144;-60
2022/09/12 01:27:50;;;;;;;286.25;19.73;;;13.00;99.90;;;;;;5060806;28;20040;-61
2022/09/12 01:30:31;;;;;;;76.22;15.18;;;13.00;99.90;;;;;;5050976;28;20519;-62
2022/09/12 01:33:18;;;;;;;110.05;14.60;;;13.10;99.90;;;;;;5059524;28;20041;-61
2022/09/12 01:35:52;;;;;;;154.50;16.08;;;13.10;99.90;;;;;;5063217;28;20035;-59
2022/09/12 01:38:45;;;;;;;204.25;16.98;;;13.00;99.90;;;;;;5062326;28;20489;-59
2022/09/12 01:41:19;;;;;;;193.73;16.45;;;13.00;99.90;;;;;;5051978;28;20036;-60
2022/09/12 01:43:56;;;;;;;127.57;13.77;;;13.00;99.90;;;;;;5062041;28;20086;-60
2022/09/12 01:46:28;;;;;;;136.05;15.00;;;12.90;99.90;;;;;;5059101;28;20504;-59
2022/09/12 01:49:00;;;;;;;32.80;12.77;;;13.00;99.90;;;;;;5063051;28;20099;-59
2022/09/12 01:51:40;;;;;;;36.28;13.05;;;13.00;99.90;;;;;;5062947;28;20056;-60
2022/09/12 01:54:14;;;;;;;33.80;12.50;;;13.00;99.90;;;;;;5060400;28;20017;-60
2022/09/12 01:56:42;;;;;;;33.13;12.75;;;13.10;99.90;;;;;;5060817;28;20109;-61
2022/09/12 01:59:14;;;;;;;40.25;12.23;;;13.10;99.90;;;;;;5061219;28;20071;-59
2022/09/12 02:01:51;;;;;;;58.05;12.43;;;13.10;99.90;;;;;;5061411;28;20017;-59
2022/09/12 02:04:19;;;;;;;88.65;12.88;;;13.00;99.90;;;;;;5061243;28;20025;-59
2022/09/12 02:06:51;;;;;;;42.53;11.90;;;13.00;99.90;;;;;;5057971;28;20013;-59
2022/09/12 02:09:25;;;;;;;;;;;13.00;99.90;;;;;;5059108;28;20487;-59
2022/09/12 02:11:55;;;;;;;31.98;10.57;;;13.00;99.90;;;;;;5060907;28;20018;-59
2022/09/12 02:14:26;;;;;;;49.10;12.30;;;13.00;99.90;;;;;;5059186;28;20032;-60
2022/09/12 02:17:14;;;;;;;46.42;11.27;;;13.00;99.90;;;;;;5058034;28;20025;-59
2022/09/12 02:19:48;;;;;;;26.90;10.18;;;12.90;99.90;;;;;;5052084;28;20387;-59
2022/09/12 02:22:18;;;;;;;49.08;9.98;;;12.90;99.90;;;;;;5060176;28;20025;-59
2022/09/12 02:24:49;;;;;;;140.67;12.80;;;12.90;99.90;;;;;;5060886;28;20469;-59
2022/09/12 02:27:26;;;;;;;43.08;10.32;;;12.90;99.90;;;;;;5080053;28;20115;-59
2022/09/12 02:29:52;;;;;;;39.10;9.70;;;12.80;99.90;;;;;;5062122;28;20040;-59
2022/09/12 02:32:29;;;;;;;68.57;11.05;;;12.80;99.90;;;;;;5057012;28;20041;-60
2022/09/12 02:35:07;;;;;;;24.95;11.25;;;12.80;99.90;;;;;;5058162;28;20510;-59
2022/09/12 02:37:44;;;;;;;26.65;10.25;;;12.80;99.90;;;;;;5058840;28;20064;-61
2022/09/12 02:40:10;;;;;;;48.50;10.80;;;12.80;99.90;;;;;;5064224;28;20400;-61
2022/09/12 02:42:36;;;;;;;46.88;10.02;;;12.70;99.90;;;;;;5077139;28;20015;-59
2022/09/12 02:45:03;;;;;;;61.75;10.98;;;12.70;99.90;;;;;;5061814;28;20472;-61
2022/09/12 02:47:42;;;;;;;23.50;10.45;;;12.70;99.90;;;;;;5056978;28;20037;-60
2022/09/12 02:50:09;;;;;;;20.60;11.18;;;12.70;99.90;;;;;;5057814;28;20021;-59
2022/09/12 02:52:35;;;;;;;16.00;10.55;;;12.60;99.90;;;;;;5060039;28;20465;-61
2022/09/12 02:55:03;;;;;;;46.30;9.05;;;12.60;99.90;;;;;;5065015;28;20020;-60
2022/09/12 02:57:29;;;;;;;28.40;10.25;;;12.60;99.90;;;;;;5061475;28;20670;-59
2022/09/12 02:59:59;;;;;;;28.42;10.20;;;12.60;99.90;;;;;;5061685;28;20119;-60
2022/09/12 03:02:37;;;;;;;23.00;10.77;;;12.60;99.90;;;;;;5064215;28;20488;-59
2022/09/12 03:05:20;;;;;;;48.85;11.35;;;12.60;99.90;;;;;;5056721;28;20447;-60
2022/09/12 03:07:57;;;;;;;49.30;11.95;;;12.60;99.90;;;;;;5054686;28;20024;-59
2022/09/12 03:10:27;;;;;;;35.95;10.98;;;12.60;99.90;;;;;;5053369;28;20583;-60
2022/09/12 03:13:11;;;;;;;22.33;11.48;;;12.60;99.90;;;;;;5068186;28;20025;-58
2022/09/12 03:15:45;;;;;;;41.53;13.13;;;12.60;99.90;;;;;;5056778;28;20021;-60
2022/09/12 03:18:22;;;;;;;31.70;13.30;;;12.60;99.90;;;;;;5058993;28;20045;-60
2022/09/12 03:21:06;;;;;;;26.30;14.57;;;12.60;99.90;;;;;;5057990;28;20029;-59
2022/09/12 03:23:51;;;;;;;56.38;16.38;;;12.60;99.90;;;;;;5057036;28;20051;-59
2022/09/12 03:26:35;;;;;;;48.95;18.08;;;12.50;99.90;;;;;;5061408;28;20433;-59
2022/09/12 03:29:03;;;;;;;33.65;20.15;;;12.50;99.90;;;;;;5059416;28;20032;-59
2022/09/12 03:31:28;;;;;;;77.22;21.38;;;12.50;99.90;;;;;;5060467;28;20043;-61
2022/09/12 03:33:54;;;;;;;49.28;18.45;;;12.50;99.90;;;;;;5058312;28;20447;-60
2022/09/12 03:36:25;;;;;;;78.38;17.95;;;12.50;99.90;;;;;;5063793;28;20491;-59
2022/09/12 03:38:51;;;;;;;111.47;16.60;;;12.50;99.90;;;;;;5065337;28;20404;-59
2022/09/12 03:41:17;;;;;;;111.20;15.02;;;12.50;99.90;;;;;;5064486;28;20032;-58
2022/09/12 03:43:44;;;;;;;51.72;12.07;;;12.40;99.90;;;;;;5065927;28;20025;-59
2022/09/12 03:46:09;;;;;;;33.20;11.35;;;12.50;99.90;;;;;;5063780;28;20104;-59
2022/09/12 03:48:35;;;;;;;32.72;10.52;;;12.50;99.90;;;;;;5066189;28;20048;-60
2022/09/12 03:51:03;;;;;;;28.30;10.35;;;12.40;99.90;;;;;;5064882;28;20119;-61
2022/09/12 03:53:29;;;;;;;27.20;10.45;;;12.50;99.90;;;;;;5065293;28;20068;-59
2022/09/12 03:55:56;;;;;;;35.05;10.70;;;12.50;99.90;;;;;;5065670;28;20040;-59
2022/09/12 03:58:21;;;;;;;38.58;11.20;;;12.50;99.90;;;;;;5070752;28;20029;-59
2022/09/12 04:00:47;;;;;;;344.15;16.58;;;12.50;99.90;;;;;;5086196;28;20028;-59
2022/09/12 04:03:13;;;;;;;244.55;15.27;;;12.40;99.90;;;;;;5062165;28;20479;-59
2022/09/12 04:05:38;;;;;;;164.25;13.25;;;12.30;99.90;;;;;;5062821;28;20522;-59
2022/09/12 04:08:04;;;;;;;75.85;12.45;;;12.20;99.90;;;;;;5064753;28;20476;-61
2022/09/12 04:10:30;;;;;;;259.60;15.38;;;12.10;99.90;;;;;;5065312;28;20078;-59
2022/09/12 04:12:56;;;;;;;159.18;13.10;;;12.00;99.90;;;;;;5064381;28;20079;-60
2022/09/12 04:15:22;;;;;;;242.45;16.05;;;12.00;99.90;;;;;;5064283;28;20033;-60
2022/09/12 04:17:48;;;;;;;210.00;16.25;;;11.90;99.90;;;;;;5063435;28;20434;-59
2022/09/12 04:20:13;;;;;;;208.30;15.27;;;11.90;99.90;;;;;;5062954;28;20024;-59
2022/09/12 04:22:39;;;;;;;307.95;17.35;;;11.80;99.90;;;;;;5064982;28;20083;-59
2022/09/12 04:25:05;;;;;;;240.48;14.88;;;11.80;99.90;;;;;;5067252;28;21423;-59
2022/09/12 04:27:31;;;;;;;285.50;17.48;;;11.70;99.90;;;;;;5067090;28;20035;-59
2022/09/12 04:29:58;;;;;;;275.17;16.50;;;11.70;99.90;;;;;;5065149;28;20021;-60
2022/09/12 04:32:24;;;;;;;299.15;19.13;;;11.70;99.90;;;;;;5066846;28;20033;-59
2022/09/12 04:34:51;;;;;;;191.13;14.95;;;11.60;99.90;;;;;;5065501;28;20025;-60
2022/09/12 04:37:17;;;;;;;325.95;17.83;;;11.60;99.90;;;;;;5063071;28;20035;-61
2022/09/12 04:39:42;;;;;;;325.90;18.25;;;11.60;99.90;;;;;;5064022;28;20408;-61
2022/09/12 04:42:08;;;;;;;333.65;19.45;;;11.50;99.90;;;;;;5060025;28;20028;-58
2022/09/12 04:44:34;;;;;;;333.85;19.83;;;11.50;99.90;;;;;;5067778;28;20056;-59
2022/09/12 04:46:59;;;;;;;405.35;21.23;;;11.40;99.90;;;;;;5060945;28;20024;-59
2022/09/12 04:49:25;;;;;;;357.73;19.95;;;11.40;99.90;;;;;;5060784;28;20543;-59
2022/09/12 04:51:52;;;;;;;361.35;20.25;;;11.30;99.90;;;;;;5060967;28;20027;-59
2022/09/12 04:54:18;;;;;;;365.17;20.00;;;11.20;99.90;;;;;;5065583;28;20032;-59
2022/09/12 04:56:47;;;;;;;315.98;19.27;;;11.20;99.90;;;;;;5062220;28;20035;-59
2022/09/12 04:59:14;;;;;;;285.88;17.40;;;11.20;99.90;;;;;;5061229;28;20079;-59
2022/09/12 05:01:41;;;;;;;137.05;14.15;;;11.10;99.90;;;;;;5059415;28;20523;-59
2022/09/12 05:04:08;;;;;;;292.38;20.52;;;11.20;99.90;;;;;;5062328;28;20032;-59
2022/09/12 05:06:35;;;;;;;147.80;14.38;;;11.20;99.90;;;;;;5060296;28;20029;-60
2022/09/12 05:09:04;;;;;;;144.38;14.70;;;11.20;99.90;;;;;;5061942;28;20021;-61
2022/09/12 05:11:32;;;;;;;175.88;16.15;;;11.20;99.90;;;;;;5062457;28;20029;-60
2022/09/12 05:13:58;;;;;;;135.10;13.85;;;11.20;99.90;;;;;;5058772;28;20033;-60
2022/09/12 05:16:26;;;;;;;100.05;12.13;;;11.10;99.90;;;;;;5057267;28;20036;-59
2022/09/12 05:18:52;;;;;;;244.35;17.35;;;11.20;99.90;;;;;;5056633;28;20137;-59
2022/09/12 05:21:22;;;;;;;106.07;12.07;;;11.20;99.90;;;;;;5058097;28;20027;-61
2022/09/12 05:23:53;;;;;;;150.43;11.52;;;11.20;99.90;;;;;;5061952;28;20163;-59
2022/09/12 05:26:20;;;;;;;142.82;11.57;;;11.10;99.90;;;;;;5061135;28;20120;-59
2022/09/12 05:28:47;;;;;;;117.80;12.52;;;11.10;99.90;;;;;;5061041;28;20037;-60
2022/09/12 05:31:12;;;;;;;233.95;16.23;;;11.10;99.90;;;;;;5057805;28;20037;-59
2022/09/12 05:33:40;;;;;;;197.07;14.88;;;11.10;99.90;;;;;;5058871;28;20130;-59
2022/09/12 05:36:09;;;;;;;214.68;14.73;;;11.10;99.90;;;;;;5066999;28;20028;-61
2022/09/12 05:38:36;;;;;;;129.07;12.85;;;11.10;99.90;;;;;;5064621;28;20226;-59
2022/09/12 05:41:07;;;;;;;302.90;18.17;;;11.20;99.90;;;;;;5062043;28;20024;-60
2022/09/12 05:43:37;;;;;;;332.40;17.90;;;11.20;99.90;;;;;;5061162;28;20372;-60
2022/09/12 05:46:07;;;;;;;407.15;20.67;;;11.20;99.90;;;;;;5062373;28;20017;-59
2022/09/12 05:48:33;;;;;;;182.32;14.80;;;11.30;99.90;;;;;;5058114;28;20412;-60
2022/09/12 05:51:01;;;;;;;180.02;16.13;;;11.30;99.90;;;;;;5060210;28;20032;-60
2022/09/12 05:53:28;;;;;;;246.63;14.75;;;11.30;99.90;;;;;;5060888;28;20033;-59
2022/09/12 05:56:11;;;;;;;96.45;9.68;;;11.30;99.90;;;;;;5060866;28;20080;-59
2022/09/12 05:58:39;;;;;;;184.15;13.57;;;11.30;99.90;;;;;;5060466;28;20036;-60
2022/09/12 06:01:09;;;;;;;141.40;11.52;;;11.30;99.90;;;;;;5064640;28;20028;-60
2022/09/12 06:03:40;;;;;;;104.28;9.25;;;11.30;99.90;;;;;;5063330;28;20029;-62
2022/09/12 06:06:06;;;;;;;74.50;8.30;;;11.30;99.90;;;;;;5058988;28;20029;-61
2022/09/12 06:08:33;;;;;;;44.00;8.10;;;11.30;99.90;;;;;;5062229;28;20353;-60
2022/09/12 06:11:01;;;;;;;58.75;8.27;;;11.30;99.90;;;;;;5062734;28;20490;-60
2022/09/12 06:13:27;;;;;;;22.65;7.45;;;11.30;99.90;;;;;;5060232;28;20055;-62
2022/09/12 06:15:53;;;;;;;120.97;10.95;;;11.30;99.90;;;;;;5058547;28;20071;-61
2022/09/12 06:18:20;;;;;;;207.43;13.38;;;11.40;99.90;;;;;;5057999;28;20028;-59
2022/09/12 06:20:45;;;;;;;128.23;10.82;;;11.40;99.90;;;;;;5054161;28;20392;-60
2022/09/12 06:23:11;;;;;;;276.00;15.40;;;11.40;99.90;;;;;;5057108;28;20036;-59
2022/09/12 06:25:37;;;;;;;342.77;16.05;;;11.50;99.90;;;;;;5047499;28;20098;-63
2022/09/12 06:28:03;;;;;;;143.02;11.45;;;11.50;99.90;;;;;;5063443;28;20119;-60
2022/09/12 06:30:29;;;;;;;67.47;7.70;;;11.60;99.90;;;;;;5063429;28;20048;-60
2022/09/12 06:32:55;;;;;;;133.57;11.50;;;11.70;99.90;;;;;;5060982;28;20060;-60
2022/09/12 06:35:22;;;;;;;95.10;10.43;;;11.90;99.90;;;;;;5056290;28;20033;-61
2022/09/12 06:37:48;;;;;;;201.48;12.10;;;12.00;99.90;;;;;;5061995;28;20025;-60
2022/09/12 06:40:14;;;;;;;172.38;11.10;;;12.20;99.90;;;;;;5061383;28;20077;-60
2022/09/12 06:42:39;;;;;;;119.32;9.63;;;12.30;99.90;;;;;;5062894;28;20168;-61
2022/09/12 06:45:06;;;;;;;95.63;8.55;;;12.30;99.90;;;;;;5058700;28;20039;-60
2022/09/12 06:47:31;;;;;;;43.90;7.85;;;12.20;99.90;;;;;;5059034;28;20052;-62
2022/09/12 06:49:57;;;;;;;48.25;7.72;;;12.30;99.90;;;;;;5059048;28;20033;-63
2022/09/12 06:52:23;;;;;;;53.70;7.97;;;12.40;99.90;;;;;;5061617;28;20131;-59
2022/09/12 06:54:49;;;;;;;70.57;8.30;;;12.50;99.90;;;;;;5058714;28;20077;-60
2022/09/12 06:57:14;;;;;;;50.17;7.10;;;12.50;99.90;;;;;;5061515;28;20049;-60
2022/09/12 06:59:40;;;;;;;171.50;8.82;;;12.40;99.90;;;;;;5076944;28;20028;-60
2022/09/12 07:02:07;;;;;;;72.88;6.85;;;12.50;99.90;;;;;;5070275;28;20029;-62
2022/09/12 07:04:35;;;;;;;22.20;5.35;;;12.50;99.90;;;;;;5061731;28;20029;-60
2022/09/12 07:07:01;;;;;;;43.83;5.60;;;12.60;99.90;;;;;;5063128;28;20031;-62
2022/09/12 07:09:26;;;;;;;103.85;6.80;;;12.60;99.90;;;;;;5058646;28;20045;-61
2022/09/12 07:11:52;;;;;;;50.45;6.53;;;12.70;99.90;;;;;;5063779;28;20048;-62
2022/09/12 07:14:18;;;;;;;42.28;6.93;;;12.70;99.90;;;;;;5064230;28;20073;-60
2022/09/12 07:16:43;;;;;;;55.97;7.15;;;12.90;99.90;;;;;;5059022;28;20507;-60
2022/09/12 07:19:10;;;;;;;30.83;6.95;;;12.90;99.90;;;;;;5061415;28;21069;-61
2022/09/12 07:21:38;;;;;;;11.82;5.90;;;13.10;99.90;;;;;;5062602;28;20082;-60
2022/09/12 07:24:04;;;;;;;17.58;5.55;;;13.30;99.90;;;;;;5058756;28;20644;-60
2022/09/12 07:26:31;;;;;;;13.90;4.75;;;13.50;99.90;;;;;;5057040;28;20029;-62
2022/09/12 07:28:58;;;;;;;47.08;6.07;;;13.60;99.90;;;;;;5067980;28;20032;-60
2022/09/12 07:31:25;;;;;;;13.75;5.40;;;13.70;99.90;;;;;;5071298;28;20036;-61
2022/09/12 07:33:51;;;;;;;75.88;7.75;;;13.80;99.90;;;;;;5058072;28;20051;-61
2022/09/12 07:36:19;;;;;;;15.02;6.65;;;13.90;99.90;;;;;;5056788;28;20052;-60
2022/09/12 07:38:45;;;;;;;31.40;7.20;;;14.00;99.90;;;;;;5058824;28;20056;-61
2022/09/12 07:41:18;;;;;;;25.67;6.93;;;14.00;99.90;;;;;;5055334;28;20060;-61
2022/09/12 07:43:44;;;;;;;47.03;6.85;;;13.90;99.90;;;;;;5060882;28;20020;-60
2022/09/12 07:46:10;;;;;;;9.75;5.57;;;13.90;99.90;;;;;;5057586;28;20418;-60
2022/09/12 07:48:38;;;;;;;23.58;6.22;;;14.10;99.90;;;;;;5059289;28;20376;-59
2022/09/12 07:51:06;;;;;;;10.52;6.10;;;14.00;99.90;;;;;;5061742;28;20039;-60
2022/09/12 07:53:34;;;;;;;9.98;6.05;;;14.10;99.90;;;;;;5059200;28;20029;-61
2022/09/12 07:56:01;;;;;;;10.55;6.03;;;14.30;99.90;;;;;;5056762;28;20115;-60
2022/09/12 07:58:27;;;;;;;10.43;5.85;;;14.50;99.90;;;;;;5061022;28;20116;-60
2022/09/12 08:00:53;;;;;;;10.90;6.18;;;14.60;99.90;;;;;;5059716;28;20052;-62
2022/09/12 08:03:19;;;;;;;6.40;5.63;;;14.80;99.90;;;;;;5055635;28;20076;-64
2022/09/12 08:05:45;;;;;;;9.32;6.30;;;15.00;99.90;;;;;;5058796;28;20055;-60
2022/09/12 08:08:11;;;;;;;8.32;6.03;;;15.20;99.90;;;;;;5058002;28;20027;-59
2022/09/12 08:10:36;;;;;;;9.23;6.82;;;15.30;99.90;;;;;;5058237;28;20393;-61
2022/09/12 08:13:02;;;;;;;8.32;6.40;;;15.40;99.90;;;;;;5056985;28;20124;-60
2022/09/12 08:15:29;;;;;;;6.70;6.20;;;15.50;99.90;;;;;;5059211;28;20051;-61
2022/09/12 08:17:54;;;;;;;7.45;6.15;;;15.60;99.90;;;;;;5062804;28;20033;-60
2022/09/12 08:20:20;;;;;;;7.03;6.35;;;15.60;99.90;;;;;;5057891;28;20062;-60
2022/09/12 08:22:46;;;;;;;7.05;6.55;;;15.70;99.90;;;;;;5060562;28;20484;-60
2022/09/12 08:25:11;;;;;;;6.80;6.38;;;15.80;99.90;;;;;;5062378;28;20380;-60
2022/09/12 08:27:38;;;;;;;7.00;6.30;;;16.00;99.90;;;;;;5063651;28;20045;-60
2022/09/12 08:30:05;;;;;;;6.95;6.40;;;16.20;99.90;;;;;;5067707;28;20051;-60
2022/09/12 08:32:30;;;;;;;6.93;6.35;;;16.40;99.90;;;;;;5062214;28;20071;-60
2022/09/12 08:34:56;;;;;;;7.50;6.90;;;16.50;99.90;;;;;;5064714;28;20060;-61
2022/09/12 08:37:22;;;;;;;7.80;7.20;;;16.70;99.90;;;;;;5063532;28;20488;-62
2022/09/12 08:39:47;;;;;;;6.07;5.57;;;16.80;99.90;;;;;;5059315;28;20055;-60
2022/09/12 08:42:32;;;;;;;6.88;6.38;;;17.10;99.90;;;;;;5057372;28;20029;-60
2022/09/12 08:45:16;;;;;;;7.90;7.32;;;17.10;99.90;;;;;;5061222;28;20064;-60
2022/09/12 08:47:45;;;;;;;7.95;7.38;;;17.10;99.90;;;;;;5061938;28;20438;-61
2022/09/12 08:50:10;;;;;;;7.03;6.47;;;17.10;99.90;;;;;;5061858;28;20027;-62
2022/09/12 08:52:45;;;;;;;7.03;6.43;;;17.10;99.90;;;;;;5060938;28;20127;-60
2022/09/12 08:55:41;;;;;;;7.97;7.28;;;17.10;99.90;;;;;;5063814;28;20039;-61
2022/09/12 08:58:14;;;;;;;7.38;6.80;;;17.10;99.90;;;;;;5062141;28;20021;-60
2022/09/12 09:01:24;;;;;;;7.00;6.50;;;17.20;99.90;;;;;;5057562;28;20020;-61
2022/09/12 09:03:50;;;;;;;6.90;6.40;;;17.50;99.90;;;;;;5042488;28;20051;-61
2022/09/12 09:06:18;;;;;;;6.95;6.40;;;17.80;99.90;;;;;;5082443;28;20111;-60
2022/09/12 09:08:46;;;;;;;8.15;6.50;;;18.40;99.90;;;;;;5081086;28;20047;-60
2022/09/12 09:11:47;;;;;;;6.60;6.00;;;19.30;99.90;;;;;;5077727;28;20094;-61
2022/09/12 09:17:20;;;;;;;7.68;6.20;;;21.60;99.90;;;;;;5079985;28;20028;-62
2022/09/12 09:20:01;;;;;;;5.50;5.10;;;23.60;99.90;;;;;;5085652;28;20078;-60
2022/09/12 09:22:29;;;;;;;5.75;5.30;;;25.50;91.40;;;;;;5082089;28;20078;-62
2022/09/12 09:25:01;;;;;;;4.55;4.25;;;27.10;74.40;;;;;;5084251;28;20611;-63
2022/09/12 09:27:42;;;;;;;4.38;3.97;;;27.80;71.40;;;;;;5052319;28;20043;-61
2022/09/12 09:30:22;;;;;;;5.05;4.75;;;29.10;68.30;;;;;;5080633;28;20517;-61
2022/09/12 09:32:55;;;;;;;3.83;3.53;;;30.70;60.90;;;;;;5082875;28;20491;-61
2022/09/12 09:35:49;;;;;;;4.40;4.00;;;31.40;56.50;;;;;;5084795;28;20024;-61
2022/09/12 09:38:43;;;;;;;4.45;4.05;;;31.50;56.00;;;;;;5081728;28;20021;-63
2022/09/12 09:41:30;;;;;;;3.95;3.63;;;32.00;54.50;;;;;;5078774;28;20298;-61
2022/09/12 09:43:57;;;;;;;4.35;4.05;;;32.80;54.00;;;;;;5076495;28;20037;-61
2022/09/12 09:46:23;;;;;;;4.97;3.60;;;32.80;52.00;;;;;;5082029;28;20028;-60
2022/09/12 09:48:50;;;;;;;4.22;3.92;;;32.70;51.80;;;;;;5079550;28;20025;-60
2022/09/12 09:51:23;;;;;;;4.30;4.00;;;32.00;52.00;;;;;;5061701;28;20041;-61
2022/09/12 09:54:22;;;;;;;4.38;3.90;;;31.50;53.90;;;;;;5063353;28;20036;-61
2022/09/12 09:56:48;;;;;;;3.63;3.33;;;31.40;53.00;;;;;;5065583;28;20086;-64
2022/09/12 09:59:28;;;;;;;4.40;4.10;;;31.70;54.60;;;;;;5064094;28;20415;-61
2022/09/12 10:02:18;;;;;;;3.00;2.80;;;31.20;53.80;;;;;;5061417;28;20044;-60
2022/09/12 10:04:54;;;;;;;3.78;3.47;;;30.90;56.10;;;;;;5056593;28;20111;-60
2022/09/12 10:07:21;;;;;;;3.20;3.00;;;30.90;54.50;;;;;;5061348;28;20118;-61
2022/09/12 10:10:06;;;;;;;3.13;2.92;;;30.50;55.90;;;;;;5063779;28;20036;-61
2022/09/12 10:12:32;;;;;;;2.63;2.42;;;30.60;55.60;;;;;;5060115;28;20044;-61
2022/09/12 10:15:00;;;;;;;2.50;2.17;;;30.50;55.00;;;;;;5059499;28;20028;-63
2022/09/12 10:17:31;;;;;;;2.05;1.95;;;30.70;56.20;;;;;;5056019;28;20036;-61
2022/09/12 10:19:57;;;;;;;2.50;2.00;;;30.90;53.70;;;;;;5063613;28;20024;-63
2022/09/12 10:22:27;;;;;;;2.60;2.28;;;30.70;55.60;;;;;;5060904;28;20033;-61
2022/09/12 10:24:57;;;;;;;1.92;1.83;;;31.10;57.20;;;;;;5061317;28;20020;-61
2022/09/12 10:27:34;;;;;;;3.15;2.10;;;31.50;54.20;;;;;;5063701;28;20397;-61
2022/09/12 10:30:04;;;;;;;2.50;1.77;;;31.50;53.40;;;;;;5059444;28;20460;-61
2022/09/12 10:32:38;;;;;;;2.53;2.33;;;31.20;53.30;;;;;;5059246;28;20060;-63
2022/09/12 10:35:17;;;;;;;1.90;1.80;;;30.10;52.60;;;;;;5060288;28;20098;-62
2022/09/12 10:37:58;;;;;;;5.07;1.80;;;30.20;56.40;;;;;;5054658;28;20031;-60
2022/09/12 10:40:27;;;;;;;1.80;1.70;;;30.80;53.40;;;;;;5058528;28;20117;-61
2022/09/12 10:42:52;;;;;;;1.90;1.70;;;30.70;54.50;;;;;;5060219;28;20059;-61
2022/09/12 10:45:21;;;;;;;1.65;1.55;;;30.80;53.20;;;;;;5057163;28;20357;-61
2022/09/12 10:47:48;;;;;;;4.65;1.70;;;31.10;52.70;;;;;;5071607;28;20052;-63
2022/09/12 10:50:28;;;;;;;1.88;1.40;;;30.40;54.50;;;;;;5070030;28;20021;-60
2022/09/12 10:53:12;;;;;;;2.30;1.70;;;30.90;54.30;;;;;;5057644;28;20036;-61
2022/09/12 10:55:41;;;;;;;1.40;1.30;;;30.90;50.50;;;;;;5056850;28;20037;-62
2022/09/12 10:58:33;;;;;;;1.65;1.40;;;30.50;51.00;;;;;;5060747;28;20028;-62
2022/09/12 11:01:19;;;;;;;1.60;1.50;;;30.20;51.40;;;;;;5060581;28;20059;-65
2022/09/12 11:04:19;;;;;;;1.20;1.10;;;30.40;52.20;;;;;;5058262;28;20122;-61
2022/09/12 11:07:21;;;;;;;2.28;1.50;;;30.80;52.10;;;;;;5061665;28;20140;-60
2022/09/12 11:10:12;;;;;;;1.30;1.20;;;31.20;51.80;;;;;;5063028;28;20051;-64
2022/09/12 11:12:51;;;;;;;1.30;1.10;;;31.60;51.60;;;;;;5063149;28;20033;-61
2022/09/12 11:15:47;;;;;;;1.90;1.20;;;31.50;50.80;;;;;;5060758;28;20045;-61
2022/09/12 11:18:22;;;;;;;1.20;1.10;;;30.90;50.70;;;;;;5060402;28;20081;-62
2022/09/12 11:20:53;;;;;;;2.80;1.40;;;30.50;49.90;;;;;;5059002;28;20048;-63
2022/09/12 11:23:51;;;;;;;1.30;1.20;;;30.40;52.20;;;;;;5057739;28;20049;-61
2022/09/12 11:26:23;;;;;;;1.25;1.10;;;30.50;53.50;;;;;;5058618;28;20029;-61
2022/09/12 11:29:16;;;;;;;1.13;1.02;;;31.10;53.80;;;;;;5058450;28;20480;-61
2022/09/12 11:31:57;;;;;;;1.52;1.00;;;31.50;50.60;;;;;;5058694;28;20040;-62
2022/09/12 11:34:31;;;;;;;;;;;31.80;48.20;;;;;;5060017;28;20027;-61
2022/09/12 11:37:15;;;;;;;1.13;1.02;;;31.70;47.90;;;;;;5058254;28;19916;-64
2022/09/12 11:39:45;;;;;;;1.38;1.00;;;31.60;48.90;;;;;;5059534;28;20037;-60
2022/09/12 11:42:25;;;;;;;2.65;0.90;;;31.30;50.30;;;;;;5076102;28;20031;-61
2022/09/12 11:45:03;;;;;;;1.85;1.27;;;30.80;50.40;;;;;;5061636;28;20139;-60
2022/09/12 11:47:31;;;;;;;1.55;1.10;;;30.90;49.50;;;;;;5057522;28;20033;-63
2022/09/12 11:50:01;;;;;;;1.40;1.20;;;30.90;49.90;;;;;;5060209;28;20036;-64
2022/09/12 11:52:35;;;;;;;2.42;1.10;;;30.60;48.20;;;;;;5061008;28;20515;-63
2022/09/12 11:55:24;;;;;;;1.30;1.00;;;30.50;50.50;;;;;;5062397;28;20016;-65
2022/09/12 11:57:54;;;;;;;1.48;0.90;;;30.50;48.30;;;;;;5060801;28;20174;-61
2022/09/12 12:00:31;;;;;;;1.35;1.02;;;30.40;47.70;;;;;;5082231;28;20226;-63
2022/09/12 12:03:33;;;;;;;2.88;0.93;;;30.20;49.60;;;;;;5070244;28;20055;-64
2022/09/12 12:06:03;;;;;;;3.58;1.20;;;30.10;48.70;;;;;;5060724;28;20029;-66
2022/09/12 12:08:30;;;;;;;1.10;1.00;;;29.80;48.00;;;;;;5061993;28;20120;-63
2022/09/12 12:11:01;;;;;;;1.20;1.10;;;29.30;48.80;;;;;;5058934;28;20701;-61
2022/09/12 12:13:38;;;;;;;1.52;1.17;;;29.40;49.20;;;;;;5064141;28;20146;-62
2022/09/12 12:16:29;;;;;;;1.23;1.08;;;29.20;48.50;;;;;;5059192;28;20025;-62
2022/09/12 12:19:00;;;;;;;1.98;1.30;;;29.50;48.60;;;;;;5067433;28;20025;-62
2022/09/12 12:21:46;;;;;;;4.97;1.40;;;29.60;51.20;;;;;;5036220;28;20041;-62
2022/09/12 12:24:13;;;;;;;1.20;1.10;;;29.40;51.60;;;;;;5063253;28;20503;-64
2022/09/12 12:26:38;;;;;;;1.45;1.25;;;29.30;52.20;;;;;;5065409;28;20068;-62
2022/09/12 12:29:16;;;;;;;1.30;1.20;;;29.30;52.50;;;;;;5064432;28;20055;-65
2022/09/12 12:32:03;;;;;;;1.65;1.17;;;29.10;50.90;;;;;;5062374;28;20035;-64
2022/09/12 12:34:30;;;;;;;2.53;1.42;;;29.20;52.10;;;;;;5066864;28;20075;-66
2022/09/12 12:36:57;;;;;;;1.80;1.25;;;29.30;52.90;;;;;;5062382;28;20104;-65
2022/09/12 12:39:31;;;;;;;1.67;1.25;;;29.20;50.90;;;;;;5063809;28;20014;-65
2022/09/12 12:42:01;;;;;;;1.45;1.10;;;29.10;51.50;;;;;;5063177;28;20412;-65
2022/09/12 12:44:46;;;;;;;1.27;1.00;;;28.90;51.80;;;;;;5062921;28;20039;-63
2022/09/12 12:47:22;;;;;;;4.18;1.38;;;29.20;52.50;;;;;;5063354;28;20048;-66
2022/09/12 12:49:58;;;;;;;1.67;1.30;;;29.50;51.60;;;;;;5065270;28;20749;-62
2022/09/12 12:52:28;;;;;;;1.50;1.40;;;29.40;52.10;;;;;;5063433;28;20054;-67
2022/09/12 12:55:01;;;;;;;3.37;1.20;;;29.50;52.20;;;;;;5063462;28;20150;-61
2022/09/12 12:57:39;;;;;;;1.77;1.15;;;29.50;50.70;;;;;;5061526;28;20052;-61
2022/09/12 13:00:24;;;;;;;1.33;1.00;;;29.40;52.40;;;;;;5058023;28;20049;-62